createdAt,value
2023-01-20T00:00:29.946Z,27.50
2023-01-20T00:01:29.853Z,25.60
2023-01-20T00:02:29.884Z,23.90
2023-01-20T00:03:29.849Z,27.60
2023-01-20T00:04:29.943Z,27.30
2023-01-20T00:05:29.817Z,26.00
2023-01-20T00:06:29.788Z,22.60
2023-01-20T00:07:29.766Z,24.80
2023-01-20T00:08:29.803Z,23.70
2023-01-20T00:09:29.737Z,26.20
2023-01-20T00:10:29.737Z,25.90
2023-01-20T00:11:29.726Z,23.10
2023-01-20T00:12:29.748Z,22.80
2023-01-20T00:13:29.732Z,22.80
2023-01-20T00:14:29.729Z,23.30
2023-01-20T00:15:29.670Z,22.10
2023-01-20T00:16:29.668Z,29.40
2023-01-20T00:17:29.662Z,26.90
2023-01-20T00:18:29.637Z,23.90
2023-01-20T00:19:29.668Z,26.80
2023-01-20T00:20:29.627Z,26.00
2023-01-20T00:21:29.598Z,25.60
2023-01-20T00:22:29.620Z,30.40
2023-01-20T00:23:29.587Z,29.00
2023-01-20T00:24:29.575Z,30.20
2023-01-20T00:25:29.586Z,30.80
2023-01-20T00:26:29.555Z,26.40
2023-01-20T00:27:29.566Z,26.00
2023-01-20T00:28:29.528Z,25.40
2023-01-20T00:29:29.564Z,28.00
2023-01-20T00:30:29.581Z,30.20
2023-01-20T00:31:29.587Z,25.00
2023-01-20T00:32:29.499Z,25.00
2023-01-20T00:33:29.489Z,25.20
2023-01-20T00:34:29.476Z,28.70
2023-01-20T00:35:29.453Z,25.90
2023-01-20T00:36:29.451Z,24.40
2023-01-20T00:37:29.451Z,26.60
2023-01-20T00:38:29.436Z,31.00
2023-01-20T00:39:29.455Z,29.80
2023-01-20T00:40:29.396Z,28.80
2023-01-20T00:41:29.376Z,23.10
2023-01-20T00:42:29.419Z,26.10
2023-01-20T00:43:29.348Z,23.30
2023-01-20T00:44:29.357Z,23.10
2023-01-20T00:45:29.335Z,24.80
2023-01-20T00:46:29.413Z,24.60
2023-01-20T00:47:29.392Z,21.80
2023-01-20T00:48:29.317Z,23.70
2023-01-20T00:49:29.293Z,21.70
2023-01-20T00:50:29.267Z,23.60
2023-01-20T00:51:29.263Z,21.70
2023-01-20T00:52:29.267Z,21.50
2023-01-20T00:53:29.285Z,22.00
2023-01-20T00:54:29.281Z,19.50
2023-01-20T00:55:29.219Z,20.20
2023-01-20T00:56:29.214Z,22.90
2023-01-20T00:57:29.198Z,22.40
2023-01-20T00:58:29.181Z,21.90
2023-01-20T00:59:29.232Z,21.40
2023-01-20T01:00:29.220Z,31.20
2023-01-20T01:01:29.177Z,22.40
2023-01-20T01:02:29.204Z,23.30
2023-01-20T01:03:29.129Z,26.40
2023-01-20T01:04:29.112Z,22.50
2023-01-20T01:05:29.090Z,21.50
2023-01-20T01:06:29.131Z,21.90
2023-01-20T01:07:29.083Z,19.80
2023-01-20T01:08:29.184Z,22.00
2023-01-20T01:09:29.050Z,21.40
2023-01-20T01:10:29.041Z,20.50
2023-01-20T01:11:29.040Z,22.50
2023-01-20T01:12:29.056Z,23.20
2023-01-20T01:13:29.013Z,18.80
2023-01-20T01:14:29.001Z,20.30
2023-01-20T01:15:28.976Z,19.30
2023-01-20T01:16:29.031Z,18.30
2023-01-20T01:17:28.980Z,19.00
2023-01-20T01:18:28.970Z,20.30
2023-01-20T01:19:28.963Z,21.20
2023-01-20T01:20:28.936Z,19.20
2023-01-20T01:21:28.931Z,18.70
2023-01-20T01:22:28.937Z,19.40
2023-01-20T01:23:29.043Z,20.90
2023-01-20T01:24:28.895Z,20.80
2023-01-20T01:25:28.889Z,21.50
2023-01-20T01:26:28.861Z,21.30
2023-01-20T01:27:28.864Z,19.70
2023-01-20T01:28:28.829Z,18.20
2023-01-20T01:29:28.874Z,16.70
2023-01-20T01:30:28.814Z,21.50
2023-01-20T01:31:28.841Z,18.90
2023-01-20T01:32:28.797Z,21.10
2023-01-20T01:33:28.819Z,18.40
2023-01-20T01:34:28.758Z,19.60
2023-01-20T01:35:28.846Z,19.30
2023-01-20T01:36:28.759Z,19.20
2023-01-20T01:37:28.747Z,20.60
2023-01-20T01:38:28.747Z,17.80
2023-01-20T01:39:28.726Z,18.50
2023-01-20T01:40:28.725Z,22.10
2023-01-20T01:41:28.734Z,20.10
2023-01-20T01:42:28.670Z,18.70
2023-01-20T01:43:28.688Z,20.40
2023-01-20T01:44:28.679Z,18.90
2023-01-20T01:45:28.650Z,18.50
2023-01-20T01:46:28.682Z,22.20
2023-01-20T01:47:28.640Z,25.30
2023-01-20T01:48:28.702Z,19.00
2023-01-20T01:49:28.600Z,20.50
2023-01-20T01:50:28.588Z,22.50
2023-01-20T01:51:28.571Z,19.90
2023-01-20T01:52:28.584Z,21.60
2023-01-20T01:53:28.615Z,18.70
2023-01-20T01:54:28.567Z,23.00
2023-01-20T01:55:28.531Z,18.30
2023-01-20T01:56:28.520Z,19.50
2023-01-20T01:57:28.512Z,22.00
2023-01-20T01:58:28.491Z,22.20
2023-01-20T01:59:28.503Z,20.70
2023-01-20T02:00:28.495Z,25.20
2023-01-20T02:01:28.589Z,22.90
2023-01-20T02:02:28.572Z,31.40
2023-01-20T02:03:28.443Z,24.20
2023-01-20T02:04:28.490Z,32.20
2023-01-20T02:05:28.495Z,27.20
2023-01-20T02:06:28.393Z,26.10
2023-01-20T02:07:28.382Z,29.50
2023-01-20T02:08:28.389Z,32.30
2023-01-20T02:09:28.392Z,28.60
2023-01-20T02:10:28.349Z,28.40
2023-01-20T02:11:28.383Z,27.90
2023-01-20T02:12:28.334Z,33.60
2023-01-20T02:13:28.312Z,41.70
2023-01-20T02:14:28.325Z,42.70
2023-01-20T02:15:28.304Z,43.90
2023-01-20T02:16:28.418Z,41.10
2023-01-20T02:17:28.281Z,52.00
2023-01-20T02:18:28.286Z,69.40
2023-01-20T02:19:28.266Z,59.40
2023-01-20T02:20:28.257Z,55.00
2023-01-20T02:21:28.218Z,40.00
2023-01-20T02:22:28.268Z,48.90
2023-01-20T02:23:28.213Z,40.70
2023-01-20T02:24:28.212Z,54.30
2023-01-20T02:25:28.300Z,45.30
2023-01-20T02:26:28.208Z,57.90
2023-01-20T02:27:28.190Z,54.00
2023-01-20T02:28:28.160Z,46.70
2023-01-20T02:29:28.146Z,46.80
2023-01-20T02:30:28.176Z,54.00
2023-01-20T02:31:28.151Z,64.00
2023-01-20T02:32:28.100Z,70.40
2023-01-20T02:33:28.292Z,68.40
2023-01-20T02:34:28.099Z,81.60
2023-01-20T02:35:28.074Z,52.00
2023-01-20T02:36:28.053Z,88.00
2023-01-20T02:37:28.099Z,104.00
2023-01-20T02:38:28.083Z,95.50
2023-01-20T02:39:28.021Z,121.50
2023-01-20T02:40:28.008Z,96.10
2023-01-20T02:41:28.017Z,122.60
2023-01-20T02:42:28.014Z,102.70
2023-01-20T02:43:27.998Z,88.10
2023-01-20T02:44:28.016Z,94.00
2023-01-20T02:45:28.036Z,97.30
2023-01-20T02:46:27.952Z,83.30
2023-01-20T02:47:27.963Z,92.60
2023-01-20T02:48:27.934Z,81.20
2023-01-20T02:49:27.936Z,101.00
2023-01-20T02:50:28.171Z,99.60
2023-01-20T02:51:27.921Z,58.30
2023-01-20T02:52:27.926Z,67.30
2023-01-20T02:53:27.886Z,62.60
2023-01-20T02:54:27.855Z,67.50
2023-01-20T02:55:27.875Z,77.90
2023-01-20T02:56:27.822Z,85.60
2023-01-20T02:57:27.810Z,102.60
2023-01-20T02:58:27.805Z,120.60
2023-01-20T02:59:27.783Z,96.20
2023-01-20T03:00:27.815Z,84.70
2023-01-20T03:01:27.834Z,119.10
2023-01-20T03:02:27.797Z,92.60
2023-01-20T03:03:27.767Z,79.60
2023-01-20T03:04:27.795Z,130.40
2023-01-20T03:05:27.724Z,124.10
2023-01-20T03:06:27.729Z,102.80
2023-01-20T03:07:27.708Z,104.60
2023-01-20T03:08:27.697Z,108.20
2023-01-20T03:09:27.738Z,100.20
2023-01-20T03:10:27.665Z,128.90
2023-01-20T03:11:27.686Z,137.20
2023-01-20T03:12:27.655Z,107.40
2023-01-20T03:13:27.639Z,109.50
2023-01-20T03:14:27.695Z,109.00
2023-01-20T03:15:27.657Z,93.00
2023-01-20T03:16:27.655Z,155.00
2023-01-20T03:17:27.607Z,145.10
2023-01-20T03:18:27.577Z,118.80
2023-01-20T03:19:27.617Z,70.20
2023-01-20T03:20:27.616Z,109.30
2023-01-20T03:21:27.591Z,113.00
2023-01-20T03:22:27.597Z,122.10
2023-01-20T03:23:27.569Z,139.70
2023-01-20T03:24:27.516Z,118.40
2023-01-20T03:25:27.520Z,173.50
2023-01-20T03:26:27.503Z,113.60
2023-01-20T03:27:27.481Z,109.90
2023-01-20T03:28:27.494Z,101.40
2023-01-20T03:29:27.447Z,95.60
2023-01-20T03:30:27.525Z,124.20
2023-01-20T03:31:27.540Z,86.50
2023-01-20T03:32:27.415Z,108.60
2023-01-20T03:33:27.396Z,109.50
2023-01-20T03:34:27.418Z,83.70
2023-01-20T03:35:27.412Z,92.30
2023-01-20T03:36:27.422Z,145.40
2023-01-20T03:37:27.367Z,110.20
2023-01-20T03:38:27.358Z,119.80
2023-01-20T03:39:27.378Z,92.10
2023-01-20T03:40:27.352Z,93.10
2023-01-20T03:41:27.383Z,87.90
2023-01-20T03:42:27.302Z,83.50
2023-01-20T03:43:27.339Z,92.30
2023-01-20T03:44:27.292Z,108.50
2023-01-20T03:45:27.359Z,91.50
2023-01-20T03:46:27.315Z,90.80
2023-01-20T03:47:27.238Z,97.40
2023-01-20T03:48:27.260Z,90.30
2023-01-20T03:49:27.242Z,87.70
2023-01-20T03:50:27.263Z,73.50
2023-01-20T03:51:27.201Z,69.50
2023-01-20T03:52:46.630Z,119.20
2023-01-20T03:53:28.176Z,73.70
2023-01-20T03:54:27.193Z,113.20
2023-01-20T03:55:27.162Z,136.40
2023-01-20T03:56:27.128Z,77.60
2023-01-20T03:57:27.148Z,83.20
2023-01-20T03:58:27.179Z,83.00
2023-01-20T03:59:27.135Z,87.20
2023-01-20T04:00:27.101Z,91.30
2023-01-20T04:01:27.169Z,91.50
2023-01-20T04:02:27.172Z,102.90
2023-01-20T04:03:27.236Z,94.90
2023-01-20T04:04:27.058Z,86.70
2023-01-20T04:05:27.040Z,69.30
2023-01-20T04:06:27.043Z,85.90
2023-01-20T04:07:27.045Z,146.00
2023-01-20T04:08:27.014Z,87.90
2023-01-20T04:09:27.088Z,74.20
2023-01-20T04:10:26.992Z,84.50
2023-01-20T04:11:26.970Z,85.00
2023-01-20T04:12:26.976Z,74.80
2023-01-20T04:13:26.950Z,93.10
2023-01-20T04:14:26.930Z,87.90
2023-01-20T04:15:29.134Z,65.30
2023-01-20T04:16:27.002Z,68.60
2023-01-20T04:17:26.928Z,62.60
2023-01-20T04:18:26.922Z,69.10
2023-01-20T04:19:26.931Z,56.20
2023-01-20T04:20:26.873Z,79.80
2023-01-20T04:21:27.103Z,70.50
2023-01-20T04:22:26.864Z,73.00
2023-01-20T04:23:26.928Z,87.20
2023-01-20T04:24:26.848Z,59.40
2023-01-20T04:25:26.870Z,55.10
2023-01-20T04:26:26.859Z,69.30
2023-01-20T04:27:26.822Z,68.80
2023-01-20T04:28:26.802Z,74.70
2023-01-20T04:29:26.762Z,62.90
2023-01-20T04:30:26.857Z,71.00
2023-01-20T04:31:31.177Z,86.10
2023-01-20T04:32:26.750Z,49.50
2023-01-20T04:33:26.790Z,57.80
2023-01-20T04:34:26.740Z,59.00
2023-01-20T04:35:26.716Z,81.50
2023-01-20T04:36:26.722Z,90.70
2023-01-20T04:37:26.731Z,81.80
2023-01-20T04:38:26.691Z,65.20
2023-01-20T04:39:26.682Z,69.20
2023-01-20T04:40:26.650Z,46.90
2023-01-20T04:41:26.659Z,58.10
2023-01-20T04:42:26.680Z,47.90
2023-01-20T04:43:26.600Z,55.00
2023-01-20T04:44:26.609Z,76.60
2023-01-20T04:45:26.641Z,63.00
2023-01-20T04:46:26.607Z,63.30
2023-01-20T04:47:26.563Z,51.80
2023-01-20T04:48:26.704Z,50.00
2023-01-20T04:49:26.553Z,37.20
2023-01-20T04:50:26.551Z,37.50
2023-01-20T04:51:26.562Z,37.60
2023-01-20T04:52:26.520Z,38.50
2023-01-20T04:53:26.551Z,46.80
2023-01-20T04:54:26.491Z,35.70
2023-01-20T04:55:26.596Z,35.70
2023-01-20T04:56:26.570Z,37.00
2023-01-20T04:57:26.529Z,32.50
2023-01-20T04:58:26.435Z,31.90
2023-01-20T04:59:26.468Z,36.70
2023-01-20T05:00:26.424Z,36.30
2023-01-20T05:01:26.487Z,38.00
2023-01-20T05:02:26.488Z,33.60
2023-01-20T05:03:26.393Z,34.10
2023-01-20T05:04:26.374Z,37.90
2023-01-20T05:05:26.376Z,33.00
2023-01-20T05:06:26.345Z,36.40
2023-01-20T05:07:26.360Z,40.60
2023-01-20T05:08:26.343Z,38.60
2023-01-20T05:09:26.344Z,45.60
2023-01-20T05:10:26.322Z,40.60
2023-01-20T05:11:26.303Z,40.10
2023-01-20T05:12:26.285Z,35.30
2023-01-20T05:13:27.202Z,37.40
2023-01-20T05:14:26.272Z,35.10
2023-01-20T05:15:26.287Z,42.40
2023-01-20T05:16:26.228Z,38.00
2023-01-20T05:17:26.224Z,40.10
2023-01-20T05:18:26.205Z,47.80
2023-01-20T05:19:26.230Z,45.70
2023-01-20T05:20:26.268Z,43.60
2023-01-20T05:21:26.172Z,43.30
2023-01-20T05:22:26.157Z,56.10
2023-01-20T05:23:26.166Z,47.40
2023-01-20T05:24:26.148Z,58.00
2023-01-20T05:25:26.655Z,63.80
2023-01-20T05:26:26.107Z,58.40
2023-01-20T05:27:26.161Z,72.10
2023-01-20T05:28:26.101Z,51.30
2023-01-20T05:29:26.072Z,53.90
2023-01-20T05:30:30.325Z,54.50
2023-01-20T05:31:26.125Z,56.60
2023-01-20T05:32:26.057Z,55.40
2023-01-20T05:33:26.294Z,53.60
2023-01-20T05:34:26.035Z,42.60
2023-01-20T05:35:26.035Z,47.50
2023-01-20T05:36:26.034Z,64.40
2023-01-20T05:37:25.989Z,64.30
2023-01-20T05:38:26.064Z,47.40
2023-01-20T05:39:25.981Z,56.80
2023-01-20T05:40:25.965Z,64.00
2023-01-20T05:41:26.019Z,63.30
2023-01-20T05:42:26.052Z,51.10
2023-01-20T05:43:25.968Z,56.20
2023-01-20T05:44:25.919Z,58.50
2023-01-20T05:45:25.913Z,82.20
2023-01-20T05:46:25.990Z,53.00
2023-01-20T05:47:25.879Z,46.90
2023-01-20T05:48:25.895Z,55.60
2023-01-20T05:49:25.845Z,55.30
2023-01-20T05:50:25.859Z,59.40
2023-01-20T05:51:25.842Z,46.60
2023-01-20T05:52:25.837Z,55.40
2023-01-20T05:53:25.807Z,50.10
2023-01-20T05:54:25.848Z,52.50
2023-01-20T05:55:25.800Z,54.70
2023-01-20T05:56:25.799Z,40.80
2023-01-20T05:57:25.812Z,36.80
2023-01-20T05:58:25.814Z,33.00
2023-01-20T05:59:25.762Z,31.50
2023-01-20T06:00:25.761Z,27.20
2023-01-20T06:01:25.763Z,29.90
2023-01-20T06:02:25.730Z,28.00
2023-01-20T06:03:25.717Z,34.70
2023-01-20T06:04:25.689Z,35.70
2023-01-20T06:05:25.686Z,31.20
2023-01-20T06:06:25.685Z,34.50
2023-01-20T06:07:25.748Z,35.40
2023-01-20T06:08:25.638Z,41.90
2023-01-20T06:09:25.680Z,35.10
2023-01-20T06:10:25.605Z,41.60
2023-01-20T06:11:25.606Z,34.60
2023-01-20T06:12:25.621Z,36.60
2023-01-20T06:13:25.589Z,43.20
2023-01-20T06:14:25.577Z,41.70
2023-01-20T06:15:25.564Z,40.00
2023-01-20T06:16:25.631Z,38.10
2023-01-20T06:17:25.567Z,38.90
2023-01-20T06:18:25.544Z,32.50
2023-01-20T06:19:25.514Z,34.20
2023-01-20T06:20:25.524Z,34.30
2023-01-20T06:21:25.486Z,39.70
2023-01-20T06:22:25.467Z,38.20
2023-01-20T06:23:25.701Z,41.40
2023-01-20T06:24:25.476Z,42.30
2023-01-20T06:25:25.447Z,37.10
2023-01-20T06:26:25.450Z,39.00
2023-01-20T06:27:25.428Z,33.80
2023-01-20T06:28:25.410Z,38.50
2023-01-20T06:29:25.464Z,47.40
2023-01-20T06:30:25.387Z,41.30
2023-01-20T06:31:25.649Z,40.40
2023-01-20T06:32:25.389Z,41.60
2023-01-20T06:33:25.358Z,40.20
2023-01-20T06:34:25.354Z,44.50
2023-01-20T06:35:25.389Z,40.30
2023-01-20T06:36:25.343Z,38.50
2023-01-20T06:37:25.350Z,39.60
2023-01-20T06:38:25.316Z,44.80
2023-01-20T06:39:25.350Z,44.50
2023-01-20T06:40:25.328Z,40.50
2023-01-20T06:41:25.272Z,43.90
2023-01-20T06:42:25.261Z,42.60
2023-01-20T06:43:25.248Z,40.20
2023-01-20T06:44:25.229Z,37.40
2023-01-20T06:45:25.233Z,42.60
2023-01-20T06:46:25.302Z,41.10
2023-01-20T06:47:25.213Z,43.70
2023-01-20T06:48:25.172Z,44.90
2023-01-20T06:49:25.207Z,43.50
2023-01-20T06:50:25.186Z,40.30
2023-01-20T06:51:25.138Z,36.40
2023-01-20T06:52:25.154Z,42.50
2023-01-20T06:53:25.123Z,42.20
2023-01-20T06:54:25.122Z,46.50
2023-01-20T06:55:25.130Z,46.10
2023-01-20T06:56:25.182Z,40.10
2023-01-20T06:57:25.090Z,44.70
2023-01-20T06:58:25.131Z,43.60
2023-01-20T06:59:25.074Z,42.80
2023-01-20T07:00:25.045Z,37.50
2023-01-20T07:01:25.192Z,41.50
2023-01-20T07:02:25.089Z,42.20
2023-01-20T07:03:25.021Z,40.90
2023-01-20T07:04:25.020Z,37.30
2023-01-20T07:05:25.013Z,38.60
2023-01-20T07:06:24.978Z,41.20
2023-01-20T07:07:24.983Z,35.70
2023-01-20T07:08:24.959Z,35.60
2023-01-20T07:09:24.989Z,35.70
2023-01-20T07:10:24.923Z,30.90
2023-01-20T07:11:24.950Z,37.70
2023-01-20T07:12:24.916Z,39.30
2023-01-20T07:13:24.901Z,37.60
2023-01-20T07:14:24.910Z,36.60
2023-01-20T07:15:24.908Z,33.70
2023-01-20T07:16:24.886Z,34.70
2023-01-20T07:17:24.864Z,36.40
2023-01-20T07:18:24.841Z,36.70
2023-01-20T07:19:24.863Z,37.40
2023-01-20T07:20:24.821Z,45.10
2023-01-20T07:21:26.518Z,39.80
2023-01-20T07:22:24.803Z,40.30
2023-01-20T07:23:24.899Z,39.20
2023-01-20T07:24:24.782Z,36.70
2023-01-20T07:25:24.750Z,44.60
2023-01-20T07:26:24.923Z,48.90
2023-01-20T07:27:24.835Z,53.40
2023-01-20T07:28:24.763Z,45.40
2023-01-20T07:29:24.717Z,51.90
2023-01-20T07:30:24.742Z,52.00
2023-01-20T07:31:24.735Z,50.50
2023-01-20T07:32:24.724Z,51.70
2023-01-20T07:33:24.676Z,73.40
2023-01-20T07:34:24.666Z,70.00
2023-01-20T07:35:24.642Z,56.50
2023-01-20T07:36:24.645Z,63.70
2023-01-20T07:37:24.626Z,57.40
2023-01-20T07:38:24.632Z,58.60
2023-01-20T07:39:24.643Z,60.80
2023-01-20T07:40:24.606Z,59.90
2023-01-20T07:41:24.577Z,63.10
2023-01-20T07:42:24.551Z,62.80
2023-01-20T07:43:24.604Z,57.50
2023-01-20T07:44:24.534Z,52.90
2023-01-20T07:45:24.577Z,53.70
2023-01-20T07:46:24.541Z,56.40
2023-01-20T07:47:24.514Z,51.60
2023-01-20T07:48:24.494Z,52.50
2023-01-20T07:49:24.504Z,47.30
2023-01-20T07:50:24.469Z,54.40
2023-01-20T07:51:24.493Z,47.40
2023-01-20T07:52:24.472Z,45.30
2023-01-20T07:53:24.442Z,42.50
2023-01-20T07:54:24.431Z,40.90
2023-01-20T07:55:25.208Z,51.40
2023-01-20T07:56:24.418Z,37.30
2023-01-20T07:57:24.405Z,40.30
2023-01-20T07:58:24.377Z,42.50
2023-01-20T07:59:24.455Z,39.60
2023-01-20T08:00:24.368Z,34.00
2023-01-20T08:01:24.477Z,36.80
2023-01-20T08:02:24.583Z,37.20
2023-01-20T08:03:26.625Z,43.30
2023-01-20T08:04:24.363Z,45.10
2023-01-20T08:05:24.314Z,43.70
2023-01-20T08:06:24.342Z,42.40
2023-01-20T08:07:24.293Z,40.00
2023-01-20T08:08:24.275Z,40.30
2023-01-20T08:09:24.252Z,42.70
2023-01-20T08:10:24.271Z,37.40
2023-01-20T08:11:24.236Z,41.60
2023-01-20T08:12:24.254Z,47.00
2023-01-20T08:13:24.205Z,45.70
2023-01-20T08:14:24.209Z,42.30
2023-01-20T08:15:24.186Z,39.70
2023-01-20T08:16:24.180Z,43.40
2023-01-20T08:17:24.167Z,37.50
2023-01-20T08:18:24.185Z,35.60
2023-01-20T08:19:24.178Z,36.70
2023-01-20T08:20:24.147Z,30.70
2023-01-20T08:21:24.134Z,32.60
2023-01-20T08:22:24.115Z,33.30
2023-01-20T08:23:24.098Z,35.30
2023-01-20T08:24:24.124Z,34.10
2023-01-20T08:25:24.075Z,41.60
2023-01-20T08:26:24.064Z,39.90
2023-01-20T08:27:24.093Z,37.50
2023-01-20T08:28:24.055Z,41.80
2023-01-20T08:29:24.066Z,35.60
2023-01-20T08:30:24.027Z,38.50
2023-01-20T08:31:24.224Z,34.80
2023-01-20T08:32:23.999Z,32.60
2023-01-20T08:33:23.983Z,35.60
2023-01-20T08:34:23.975Z,38.60
2023-01-20T08:35:24.008Z,36.60
2023-01-20T08:36:24.006Z,33.00
2023-01-20T08:37:23.935Z,37.40
2023-01-20T08:38:24.019Z,34.00
2023-01-20T08:39:23.922Z,38.30
2023-01-20T08:40:23.941Z,37.40
2023-01-20T08:41:23.994Z,38.10
2023-01-20T08:42:23.915Z,37.70
2023-01-20T08:43:23.865Z,40.70
2023-01-20T08:44:23.867Z,35.60
2023-01-20T08:45:23.898Z,37.60
2023-01-20T08:46:23.896Z,42.20
2023-01-20T08:47:23.877Z,39.50
2023-01-20T08:48:23.836Z,50.90
2023-01-20T08:49:23.812Z,50.60
2023-01-20T08:50:23.785Z,64.20
2023-01-20T08:51:23.803Z,42.30
2023-01-20T08:52:23.758Z,43.80
2023-01-20T08:53:23.843Z,40.90
2023-01-20T08:54:23.753Z,36.80
2023-01-20T08:55:23.730Z,38.00
2023-01-20T08:56:23.759Z,37.40
2023-01-20T08:57:23.761Z,40.30
2023-01-20T08:58:25.398Z,43.30
2023-01-20T08:59:23.697Z,40.00
2023-01-20T09:00:23.716Z,32.20
2023-01-20T09:01:23.762Z,29.70
2023-01-20T09:02:23.721Z,38.40
2023-01-20T09:03:23.679Z,28.80
2023-01-20T09:04:23.681Z,28.70
2023-01-20T09:05:23.645Z,27.00
2023-01-20T09:06:23.611Z,34.20
2023-01-20T09:07:23.600Z,33.50
2023-01-20T09:08:23.607Z,33.90
2023-01-20T09:09:23.612Z,27.80
2023-01-20T09:10:23.718Z,26.10
2023-01-20T09:11:23.667Z,27.40
2023-01-20T09:12:23.557Z,33.60
2023-01-20T09:13:23.517Z,36.10
2023-01-20T09:14:23.526Z,26.60
2023-01-20T09:15:25.514Z,29.30
2023-01-20T09:16:23.527Z,33.50
2023-01-20T09:17:23.496Z,34.30
2023-01-20T09:18:23.497Z,37.70
2023-01-20T09:19:23.466Z,34.30
2023-01-20T09:20:23.499Z,33.90
2023-01-20T09:21:23.528Z,35.50
2023-01-20T09:22:23.447Z,30.50
2023-01-20T09:23:23.423Z,37.40
2023-01-20T09:24:23.438Z,28.20
2023-01-20T09:25:23.397Z,30.90
2023-01-20T09:26:35.289Z,31.60
2023-01-20T09:27:24.408Z,26.80
2023-01-20T09:28:23.415Z,29.10
2023-01-20T09:29:23.349Z,32.40
2023-01-20T09:30:23.354Z,27.00
2023-01-20T09:31:23.440Z,30.70
2023-01-20T09:32:23.304Z,24.70
2023-01-20T09:33:23.324Z,23.90
2023-01-20T09:34:23.299Z,23.50
2023-01-20T09:35:23.285Z,27.50
2023-01-20T09:36:23.306Z,23.70
2023-01-20T09:37:23.248Z,28.30
2023-01-20T09:38:23.241Z,24.80
2023-01-20T09:39:23.274Z,23.10
2023-01-20T09:40:23.246Z,24.10
2023-01-20T09:41:23.224Z,26.40
2023-01-20T09:42:23.203Z,22.40
2023-01-20T09:43:23.197Z,27.20
2023-01-20T09:44:23.174Z,29.40
2023-01-20T09:45:23.194Z,28.50
2023-01-20T09:46:23.179Z,31.00
2023-01-20T09:47:23.160Z,27.50
2023-01-20T09:48:23.123Z,27.00
2023-01-20T09:49:23.131Z,31.40
2023-01-20T09:50:23.123Z,28.80
2023-01-20T09:51:23.124Z,27.10
2023-01-20T09:52:23.103Z,31.50
2023-01-20T09:53:23.061Z,28.50
2023-01-20T09:54:23.051Z,27.80
2023-01-20T09:55:23.082Z,28.40
2023-01-20T09:56:23.069Z,31.70
2023-01-20T09:57:23.033Z,29.60
2023-01-20T09:58:23.030Z,32.70
2023-01-20T09:59:22.992Z,31.50
2023-01-20T10:00:22.990Z,28.40
2023-01-20T10:01:23.082Z,31.20
2023-01-20T10:02:22.999Z,31.90
2023-01-20T10:03:22.966Z,31.40
2023-01-20T10:04:23.003Z,29.80
2023-01-20T10:05:23.028Z,26.20
2023-01-20T10:06:22.923Z,28.30
2023-01-20T10:07:22.968Z,28.40
2023-01-20T10:08:22.906Z,31.30
2023-01-20T10:09:22.901Z,34.50
2023-01-20T10:10:22.888Z,32.30
2023-01-20T10:11:23.251Z,30.40
2023-01-20T10:12:22.863Z,38.20
2023-01-20T10:13:22.846Z,32.70
2023-01-20T10:14:22.862Z,35.80
2023-01-20T10:15:22.816Z,44.00
2023-01-20T10:16:22.949Z,38.70
2023-01-20T10:17:22.805Z,43.60
2023-01-20T10:18:22.804Z,35.00
2023-01-20T10:19:22.766Z,32.00
2023-01-20T10:20:22.767Z,35.10
2023-01-20T10:21:22.742Z,33.00
2023-01-20T10:22:22.735Z,30.60
2023-01-20T10:23:22.723Z,31.50
2023-01-20T10:24:22.739Z,30.70
2023-01-20T10:25:22.699Z,28.90
2023-01-20T10:26:22.694Z,30.10
2023-01-20T10:27:22.678Z,37.40
2023-01-20T10:28:22.688Z,38.50
2023-01-20T10:29:22.653Z,35.60
2023-01-20T10:30:22.763Z,31.50
2023-01-20T10:31:22.737Z,28.50
2023-01-20T10:32:22.643Z,29.00
2023-01-20T10:33:22.700Z,29.70
2023-01-20T10:34:22.614Z,29.60
2023-01-20T10:35:22.693Z,35.70
2023-01-20T10:36:22.605Z,30.70
2023-01-20T10:37:22.757Z,27.70
2023-01-20T10:38:22.555Z,27.10
2023-01-20T10:39:22.799Z,31.40
2023-01-20T10:40:22.561Z,32.70
2023-01-20T10:41:22.551Z,33.50
2023-01-20T10:42:22.613Z,30.90
2023-01-20T10:43:22.488Z,31.10
2023-01-20T10:44:22.521Z,35.30
2023-01-20T10:45:22.496Z,34.30
2023-01-20T10:46:22.585Z,32.50
2023-01-20T10:47:22.506Z,31.70
2023-01-20T10:48:22.455Z,33.90
2023-01-20T10:49:22.477Z,35.40
2023-01-20T10:50:22.436Z,37.80
2023-01-20T10:51:22.439Z,41.60
2023-01-20T10:52:22.395Z,33.50
2023-01-20T10:53:22.431Z,35.60
2023-01-20T10:54:22.382Z,34.80
2023-01-20T10:55:22.373Z,37.40
2023-01-20T10:56:22.382Z,35.30
2023-01-20T10:57:22.344Z,34.90
2023-01-20T10:58:22.363Z,33.40
2023-01-20T10:59:22.335Z,30.60
2023-01-20T11:00:22.365Z,31.10
2023-01-20T11:01:22.345Z,36.00
2023-01-20T11:02:22.350Z,32.50
2023-01-20T11:03:22.341Z,32.60
2023-01-20T11:04:22.275Z,31.50
2023-01-20T11:05:22.288Z,35.80
2023-01-20T11:06:22.238Z,37.60
2023-01-20T11:07:22.249Z,37.20
2023-01-20T11:08:22.226Z,34.10
2023-01-20T11:09:22.199Z,35.70
2023-01-20T11:10:22.275Z,35.30
2023-01-20T11:11:22.209Z,34.70
2023-01-20T11:12:22.366Z,29.10
2023-01-20T11:13:22.164Z,37.10
2023-01-20T11:14:22.257Z,35.80
2023-01-20T11:15:22.174Z,33.80
2023-01-20T11:16:22.281Z,34.20
2023-01-20T11:17:22.127Z,36.20
2023-01-20T11:18:22.126Z,35.50
2023-01-20T11:19:22.113Z,32.50
2023-01-20T11:20:22.077Z,34.40
2023-01-20T11:21:22.099Z,38.20
2023-01-20T11:22:22.147Z,37.00
2023-01-20T11:23:22.098Z,36.90
2023-01-20T11:24:22.041Z,36.40
2023-01-20T11:25:22.035Z,37.10
2023-01-20T11:26:22.196Z,40.90
2023-01-20T11:27:22.056Z,47.20
2023-01-20T11:28:21.987Z,38.40
2023-01-20T11:29:22.026Z,38.20
2023-01-20T11:30:21.970Z,36.10
2023-01-20T11:31:22.087Z,38.80
2023-01-20T11:32:25.008Z,37.80
2023-01-20T11:33:21.986Z,33.30
2023-01-20T11:34:21.909Z,36.10
2023-01-20T11:35:21.895Z,34.50
2023-01-20T11:36:21.888Z,39.70
2023-01-20T11:37:21.877Z,39.00
2023-01-20T11:38:21.865Z,41.20
2023-01-20T11:39:21.980Z,38.60
2023-01-20T11:40:21.838Z,43.50
2023-01-20T11:41:21.837Z,36.90
2023-01-20T11:42:21.825Z,39.60
2023-01-20T11:43:21.800Z,41.70
2023-01-20T11:44:21.886Z,37.80
2023-01-20T11:45:22.033Z,36.50
2023-01-20T11:46:21.812Z,39.90
2023-01-20T11:47:21.768Z,45.40
2023-01-20T11:48:21.777Z,36.20
2023-01-20T11:49:21.773Z,41.80
2023-01-20T11:50:21.788Z,39.30
2023-01-20T11:51:21.711Z,41.30
2023-01-20T11:52:21.714Z,31.40
2023-01-20T11:53:21.713Z,34.60
2023-01-20T11:54:21.679Z,33.20
2023-01-20T11:55:21.687Z,34.00
2023-01-20T11:56:21.711Z,31.40
2023-01-20T11:57:21.649Z,27.70
2023-01-20T11:58:21.642Z,31.40
2023-01-20T11:59:21.661Z,29.60
2023-01-20T12:00:21.611Z,33.20
2023-01-20T12:01:21.613Z,27.40
2023-01-20T12:02:21.617Z,29.70
2023-01-20T12:03:21.581Z,32.10
2023-01-20T12:04:21.755Z,29.30
2023-01-20T12:05:21.551Z,33.80
2023-01-20T12:06:21.551Z,32.10
2023-01-20T12:07:21.532Z,30.80
2023-01-20T12:08:21.555Z,32.40
2023-01-20T12:09:21.563Z,31.90
2023-01-20T12:10:21.513Z,30.20
2023-01-20T12:11:21.572Z,29.40
2023-01-20T12:12:21.481Z,34.20
2023-01-20T12:13:21.481Z,35.80
2023-01-20T12:14:21.490Z,38.30
2023-01-20T12:15:21.444Z,34.00
2023-01-20T12:16:21.490Z,34.70
2023-01-20T12:17:21.437Z,42.00
2023-01-20T12:18:21.452Z,38.70
2023-01-20T12:19:21.401Z,39.80
2023-01-20T12:20:21.419Z,39.90
2023-01-20T12:21:21.383Z,37.20
2023-01-20T12:22:21.383Z,36.80
2023-01-20T12:23:21.434Z,36.30
2023-01-20T12:24:21.385Z,35.30
2023-01-20T12:25:21.349Z,29.40
2023-01-20T12:26:21.363Z,27.50
2023-01-20T12:27:21.376Z,27.10
2023-01-20T12:28:21.307Z,31.70
2023-01-20T12:29:21.314Z,33.10
2023-01-20T12:30:22.879Z,26.90
2023-01-20T12:31:21.335Z,35.00
2023-01-20T12:32:21.282Z,35.00
2023-01-20T12:33:21.242Z,32.20
2023-01-20T12:34:21.257Z,35.10
2023-01-20T12:35:21.226Z,36.70
2023-01-20T12:36:21.233Z,39.40
2023-01-20T12:37:21.198Z,34.40
2023-01-20T12:38:21.216Z,37.90
2023-01-20T12:39:21.187Z,34.90
2023-01-20T12:40:21.182Z,33.10
2023-01-20T12:41:21.154Z,32.80
2023-01-20T12:42:21.137Z,30.80
2023-01-20T12:43:21.856Z,32.50
2023-01-20T12:44:21.174Z,38.00
2023-01-20T12:45:21.113Z,31.20
2023-01-20T12:46:21.109Z,31.60
2023-01-20T12:47:21.114Z,33.70
2023-01-20T12:48:21.074Z,32.50
2023-01-20T12:49:21.100Z,29.50
2023-01-20T12:50:21.069Z,35.70
2023-01-20T12:51:21.044Z,33.10